sensor_id;sensor_type;location;lat;lon;timestamp;P1;durP1;ratioP1;P2;durP2;ratioP2
66721;SDS011;53633;49.932;10.884;2023-08-30T00:01:00;3.00;;;0.88;;
66721;SDS011;53633;49.932;10.884;2023-08-30T00:03:27;4.93;;;1.00;;
66721;SDS011;53633;49.932;10.884;2023-08-30T00:05:54;4.43;;;1.00;;
66721;SDS011;53633;49.932;10.884;2023-08-30T00:08:21;5.50;;;1.20;;
66721;SDS011;53633;49.932;10.884;2023-08-30T00:10:48;4.38;;;1.08;;
66721;SDS011;53633;49.932;10.884;2023-08-30T00:13:14;7.57;;;1.40;;
66721;SDS011;53633;49.932;10.884;2023-08-30T00:15:42;2.88;;;0.90;;
66721;SDS011;53633;49.932;10.884;2023-08-30T00:18:09;2.97;;;1.02;;
66721;SDS011;53633;49.932;10.884;2023-08-30T00:20:36;4.30;;;1.15;;
66721;SDS011;53633;49.932;10.884;2023-08-30T00:23:03;3.28;;;1.05;;
66721;SDS011;53633;49.932;10.884;2023-08-30T00:25:30;3.70;;;0.95;;
66721;SDS011;53633;49.932;10.884;2023-08-30T00:27:56;5.20;;;1.00;;
66721;SDS011;53633;49.932;10.884;2023-08-30T00:30:23;4.88;;;1.15;;
66721;SDS011;53633;49.932;10.884;2023-08-30T00:32:51;2.70;;;0.82;;
66721;SDS011;53633;49.932;10.884;2023-08-30T00:35:17;5.03;;;1.00;;
66721;SDS011;53633;49.932;10.884;2023-08-30T00:37:44;4.03;;;1.17;;
66721;SDS011;53633;49.932;10.884;2023-08-30T00:40:11;3.55;;;0.95;;
66721;SDS011;53633;49.932;10.884;2023-08-30T00:42:38;4.35;;;1.20;;
66721;SDS011;53633;49.932;10.884;2023-08-30T00:45:05;4.28;;;0.93;;
66721;SDS011;53633;49.932;10.884;2023-08-30T00:47:32;3.63;;;1.25;;
66721;SDS011;53633;49.932;10.884;2023-08-30T00:50:01;2.40;;;1.00;;
66721;SDS011;53633;49.932;10.884;2023-08-30T00:52:28;6.38;;;1.10;;
66721;SDS011;53633;49.932;10.884;2023-08-30T00:54:55;3.40;;;1.17;;
66721;SDS011;53633;49.932;10.884;2023-08-30T00:57:22;2.88;;;0.90;;
66721;SDS011;53633;49.932;10.884;2023-08-30T00:59:49;4.90;;;1.00;;
66721;SDS011;53633;49.932;10.884;2023-08-30T01:02:18;3.25;;;1.00;;
66721;SDS011;53633;49.932;10.884;2023-08-30T01:04:45;2.97;;;0.82;;
66721;SDS011;53633;49.932;10.884;2023-08-30T01:07:13;4.82;;;0.85;;
66721;SDS011;53633;49.932;10.884;2023-08-30T01:09:40;3.25;;;0.90;;
66721;SDS011;53633;49.932;10.884;2023-08-30T01:12:08;3.85;;;1.58;;
66721;SDS011;53633;49.932;10.884;2023-08-30T01:14:40;3.55;;;1.23;;
66721;SDS011;53633;49.932;10.884;2023-08-30T01:17:11;4.38;;;0.95;;
66721;SDS011;53633;49.932;10.884;2023-08-30T01:19:41;3.25;;;1.10;;
66721;SDS011;53633;49.932;10.884;2023-08-30T01:22:16;3.20;;;0.90;;
66721;SDS011;53633;49.932;10.884;2023-08-30T01:24:49;4.53;;;1.25;;
66721;SDS011;53633;49.932;10.884;2023-08-30T01:27:25;2.50;;;0.80;;
66721;SDS011;53633;49.932;10.884;2023-08-30T01:29:53;3.22;;;1.13;;
66721;SDS011;53633;49.932;10.884;2023-08-30T01:32:22;3.58;;;1.00;;
66721;SDS011;53633;49.932;10.884;2023-08-30T01:34:50;4.10;;;1.13;;
66721;SDS011;53633;49.932;10.884;2023-08-30T01:37:17;2.60;;;0.80;;
66721;SDS011;53633;49.932;10.884;2023-08-30T01:39:45;5.13;;;1.30;;
66721;SDS011;53633;49.932;10.884;2023-08-30T01:42:12;4.15;;;1.17;;
66721;SDS011;53633;49.932;10.884;2023-08-30T01:44:40;5.88;;;1.10;;
66721;SDS011;53633;49.932;10.884;2023-08-30T01:47:08;3.15;;;1.13;;
66721;SDS011;53633;49.932;10.884;2023-08-30T01:49:35;4.28;;;1.30;;
66721;SDS011;53633;49.932;10.884;2023-08-30T01:52:03;4.72;;;1.63;;
66721;SDS011;53633;49.932;10.884;2023-08-30T01:54:30;3.70;;;1.27;;
66721;SDS011;53633;49.932;10.884;2023-08-30T01:56:58;4.78;;;0.98;;
66721;SDS011;53633;49.932;10.884;2023-08-30T01:59:25;4.47;;;1.10;;
66721;SDS011;53633;49.932;10.884;2023-08-30T02:01:53;3.85;;;1.20;;
66721;SDS011;53633;49.932;10.884;2023-08-30T02:04:19;3.97;;;0.88;;
66721;SDS011;53633;49.932;10.884;2023-08-30T02:06:48;2.88;;;1.00;;
66721;SDS011;53633;49.932;10.884;2023-08-30T02:09:21;5.97;;;1.42;;
66721;SDS011;53633;49.932;10.884;2023-08-30T02:11:53;7.00;;;1.00;;
66721;SDS011;53633;49.932;10.884;2023-08-30T02:14:22;4.18;;;1.23;;
66721;SDS011;53633;49.932;10.884;2023-08-30T02:16:54;3.40;;;1.00;;
66721;SDS011;53633;49.932;10.884;2023-08-30T02:19:21;2.90;;;1.05;;
66721;SDS011;53633;49.932;10.884;2023-08-30T02:21:49;4.18;;;1.30;;
66721;SDS011;53633;49.932;10.884;2023-08-30T02:24:16;5.13;;;1.20;;
66721;SDS011;53633;49.932;10.884;2023-08-30T02:26:42;4.07;;;1.10;;
66721;SDS011;53633;49.932;10.884;2023-08-30T02:29:09;4.85;;;1.10;;
66721;SDS011;53633;49.932;10.884;2023-08-30T02:31:36;3.22;;;1.13;;
66721;SDS011;53633;49.932;10.884;2023-08-30T02:34:04;3.85;;;1.08;;
66721;SDS011;53633;49.932;10.884;2023-08-30T02:36:31;3.22;;;1.00;;
66721;SDS011;53633;49.932;10.884;2023-08-30T02:38:57;4.22;;;1.00;;
66721;SDS011;53633;49.932;10.884;2023-08-30T02:41:24;4.57;;;1.15;;
66721;SDS011;53633;49.932;10.884;2023-08-30T02:43:51;2.95;;;0.90;;
66721;SDS011;53633;49.932;10.884;2023-08-30T02:46:17;2.80;;;0.90;;
66721;SDS011;53633;49.932;10.884;2023-08-30T02:48:44;4.10;;;1.10;;
66721;SDS011;53633;49.932;10.884;2023-08-30T02:51:12;3.63;;;0.90;;
66721;SDS011;53633;49.932;10.884;2023-08-30T02:53:38;4.15;;;1.10;;
66721;SDS011;53633;49.932;10.884;2023-08-30T02:56:05;4.35;;;1.30;;
66721;SDS011;53633;49.932;10.884;2023-08-30T02:58:32;4.38;;;0.95;;
66721;SDS011;53633;49.932;10.884;2023-08-30T03:00:59;4.20;;;1.30;;
66721;SDS011;53633;49.932;10.884;2023-08-30T03:03:27;3.40;;;1.10;;
66721;SDS011;53633;49.932;10.884;2023-08-30T03:05:53;4.32;;;1.10;;
66721;SDS011;53633;49.932;10.884;2023-08-30T03:08:21;4.70;;;1.02;;
66721;SDS011;53633;49.932;10.884;2023-08-30T03:10:48;3.70;;;1.00;;
66721;SDS011;53633;49.932;10.884;2023-08-30T03:13:15;5.68;;;1.08;;
66721;SDS011;53633;49.932;10.884;2023-08-30T03:15:41;2.45;;;0.63;;
66721;SDS011;53633;49.932;10.884;2023-08-30T03:18:08;4.65;;;0.93;;
66721;SDS011;53633;49.932;10.884;2023-08-30T03:20:35;4.60;;;1.17;;
66721;SDS011;53633;49.932;10.884;2023-08-30T03:23:02;4.65;;;1.15;;
66721;SDS011;53633;49.932;10.884;2023-08-30T03:25:30;6.40;;;1.00;;
66721;SDS011;53633;49.932;10.884;2023-08-30T03:27:57;3.25;;;1.17;;
66721;SDS011;53633;49.932;10.884;2023-08-30T03:30:23;3.60;;;0.77;;
66721;SDS011;53633;49.932;10.884;2023-08-30T03:32:50;4.60;;;0.93;;
66721;SDS011;53633;49.932;10.884;2023-08-30T03:35:17;3.08;;;0.98;;
66721;SDS011;53633;49.932;10.884;2023-08-30T03:37:43;2.70;;;0.82;;
66721;SDS011;53633;49.932;10.884;2023-08-30T03:40:10;6.30;;;1.00;;
66721;SDS011;53633;49.932;10.884;2023-08-30T03:42:39;3.38;;;0.80;;
66721;SDS011;53633;49.932;10.884;2023-08-30T03:45:06;4.03;;;1.00;;
66721;SDS011;53633;49.932;10.884;2023-08-30T03:47:34;3.13;;;0.95;;
66721;SDS011;53633;49.932;10.884;2023-08-30T03:50:00;3.30;;;0.95;;
66721;SDS011;53633;49.932;10.884;2023-08-30T03:52:27;4.00;;;1.20;;
66721;SDS011;53633;49.932;10.884;2023-08-30T03:54:54;2.20;;;0.80;;
66721;SDS011;53633;49.932;10.884;2023-08-30T03:57:21;4.38;;;0.75;;
66721;SDS011;53633;49.932;10.884;2023-08-30T03:59:49;2.30;;;0.60;;
66721;SDS011;53633;49.932;10.884;2023-08-30T04:02:16;2.88;;;0.80;;
66721;SDS011;53633;49.932;10.884;2023-08-30T04:04:42;4.28;;;0.77;;
66721;SDS011;53633;49.932;10.884;2023-08-30T04:07:09;3.10;;;0.90;;
66721;SDS011;53633;49.932;10.884;2023-08-30T04:09:36;3.55;;;1.00;;
66721;SDS011;53633;49.932;10.884;2023-08-30T04:12:02;3.63;;;1.00;;
66721;SDS011;53633;49.932;10.884;2023-08-30T04:14:29;4.50;;;1.13;;
66721;SDS011;53633;49.932;10.884;2023-08-30T04:16:57;4.75;;;1.10;;
66721;SDS011;53633;49.932;10.884;2023-08-30T04:19:24;5.70;;;1.55;;
66721;SDS011;53633;49.932;10.884;2023-08-30T04:21:51;4.82;;;1.88;;
66721;SDS011;53633;49.932;10.884;2023-08-30T04:24:17;7.53;;;1.52;;
66721;SDS011;53633;49.932;10.884;2023-08-30T04:26:44;4.22;;;1.20;;
66721;SDS011;53633;49.932;10.884;2023-08-30T04:29:11;5.82;;;1.25;;
66721;SDS011;53633;49.932;10.884;2023-08-30T04:31:37;6.95;;;1.40;;
66721;SDS011;53633;49.932;10.884;2023-08-30T04:34:05;6.32;;;1.65;;
66721;SDS011;53633;49.932;10.884;2023-08-30T04:36:32;4.80;;;1.52;;
66721;SDS011;53633;49.932;10.884;2023-08-30T04:38:59;5.95;;;2.10;;
66721;SDS011;53633;49.932;10.884;2023-08-30T04:41:28;7.70;;;2.10;;
66721;SDS011;53633;49.932;10.884;2023-08-30T04:43:55;5.55;;;2.05;;
66721;SDS011;53633;49.932;10.884;2023-08-30T04:46:22;5.75;;;2.50;;
66721;SDS011;53633;49.932;10.884;2023-08-30T04:48:48;7.05;;;2.40;;
66721;SDS011;53633;49.932;10.884;2023-08-30T04:51:16;9.93;;;2.20;;
66721;SDS011;53633;49.932;10.884;2023-08-30T04:53:43;6.25;;;1.98;;
66721;SDS011;53633;49.932;10.884;2023-08-30T04:56:10;5.55;;;1.70;;
66721;SDS011;53633;49.932;10.884;2023-08-30T04:58:38;5.55;;;2.10;;
66721;SDS011;53633;49.932;10.884;2023-08-30T05:01:04;6.22;;;2.15;;
66721;SDS011;53633;49.932;10.884;2023-08-30T05:03:31;6.63;;;2.10;;
66721;SDS011;53633;49.932;10.884;2023-08-30T05:05:58;5.80;;;2.25;;
66721;SDS011;53633;49.932;10.884;2023-08-30T05:08:26;7.15;;;2.38;;
66721;SDS011;53633;49.932;10.884;2023-08-30T05:10:53;6.28;;;2.60;;
66721;SDS011;53633;49.932;10.884;2023-08-30T05:13:20;5.18;;;2.10;;
66721;SDS011;53633;49.932;10.884;2023-08-30T05:15:47;6.95;;;2.00;;
66721;SDS011;53633;49.932;10.884;2023-08-30T05:18:13;7.70;;;2.20;;
66721;SDS011;53633;49.932;10.884;2023-08-30T05:20:40;6.45;;;2.30;;
66721;SDS011;53633;49.932;10.884;2023-08-30T05:23:07;5.55;;;1.95;;
66721;SDS011;53633;49.932;10.884;2023-08-30T05:25:35;6.28;;;2.17;;
66721;SDS011;53633;49.932;10.884;2023-08-30T05:28:02;6.18;;;2.55;;
66721;SDS011;53633;49.932;10.884;2023-08-30T05:30:28;9.05;;;2.90;;
66721;SDS011;53633;49.932;10.884;2023-08-30T05:32:55;8.60;;;3.45;;
66721;SDS011;53633;49.932;10.884;2023-08-30T05:35:22;7.65;;;3.35;;
66721;SDS011;53633;49.932;10.884;2023-08-30T05:37:48;9.38;;;3.70;;
66721;SDS011;53633;49.932;10.884;2023-08-30T05:40:15;9.75;;;3.70;;
66721;SDS011;53633;49.932;10.884;2023-08-30T05:42:43;8.70;;;3.63;;
66721;SDS011;53633;49.932;10.884;2023-08-30T05:45:10;8.07;;;3.40;;
66721;SDS011;53633;49.932;10.884;2023-08-30T05:47:37;9.20;;;3.72;;
66721;SDS011;53633;49.932;10.884;2023-08-30T05:50:04;8.05;;;3.50;;
66721;SDS011;53633;49.932;10.884;2023-08-30T05:52:31;7.35;;;3.72;;
66721;SDS011;53633;49.932;10.884;2023-08-30T05:54:58;10.73;;;4.00;;
66721;SDS011;53633;49.932;10.884;2023-08-30T05:57:25;7.97;;;3.83;;
66721;SDS011;53633;49.932;10.884;2023-08-30T05:59:53;9.02;;;3.85;;
66721;SDS011;53633;49.932;10.884;2023-08-30T06:02:21;6.38;;;2.90;;
66721;SDS011;53633;49.932;10.884;2023-08-30T06:04:47;8.02;;;3.90;;
66721;SDS011;53633;49.932;10.884;2023-08-30T06:07:14;7.80;;;2.95;;
66721;SDS011;53633;49.932;10.884;2023-08-30T06:09:41;7.68;;;3.30;;
66721;SDS011;53633;49.932;10.884;2023-08-30T06:12:08;8.90;;;3.40;;
66721;SDS011;53633;49.932;10.884;2023-08-30T06:14:35;7.80;;;3.55;;
66721;SDS011;53633;49.932;10.884;2023-08-30T06:17:03;7.53;;;3.70;;
66721;SDS011;53633;49.932;10.884;2023-08-30T06:19:30;8.73;;;4.00;;
66721;SDS011;53633;49.932;10.884;2023-08-30T06:21:56;10.68;;;4.53;;
66721;SDS011;53633;49.932;10.884;2023-08-30T06:24:23;10.63;;;4.57;;
66721;SDS011;53633;49.932;10.884;2023-08-30T06:26:50;11.07;;;4.18;;
66721;SDS011;53633;49.932;10.884;2023-08-30T06:29:16;9.90;;;4.63;;
66721;SDS011;53633;49.932;10.884;2023-08-30T06:31:43;10.90;;;4.85;;
66721;SDS011;53633;49.932;10.884;2023-08-30T06:34:11;13.23;;;5.20;;
66721;SDS011;53633;49.932;10.884;2023-08-30T06:36:38;11.40;;;5.05;;
66721;SDS011;53633;49.932;10.884;2023-08-30T06:39:04;11.50;;;5.05;;
66721;SDS011;53633;49.932;10.884;2023-08-30T06:41:31;12.52;;;5.45;;
66721;SDS011;53633;49.932;10.884;2023-08-30T06:44:00;11.88;;;5.25;;
66721;SDS011;53633;49.932;10.884;2023-08-30T06:46:29;13.63;;;5.93;;
66721;SDS011;53633;49.932;10.884;2023-08-30T06:48:56;14.32;;;5.18;;
66721;SDS011;53633;49.932;10.884;2023-08-30T06:51:24;16.85;;;6.35;;
66721;SDS011;53633;49.932;10.884;2023-08-30T06:53:51;14.02;;;5.68;;
66721;SDS011;53633;49.932;10.884;2023-08-30T06:56:17;11.80;;;5.43;;
66721;SDS011;53633;49.932;10.884;2023-08-30T06:58:44;13.98;;;5.97;;
66721;SDS011;53633;49.932;10.884;2023-08-30T07:01:11;13.57;;;5.78;;
66721;SDS011;53633;49.932;10.884;2023-08-30T07:03:37;16.30;;;5.55;;
66721;SDS011;53633;49.932;10.884;2023-08-30T07:06:04;13.35;;;6.03;;
66721;SDS011;53633;49.932;10.884;2023-08-30T07:08:32;12.10;;;5.75;;
66721;SDS011;53633;49.932;10.884;2023-08-30T07:10:59;13.25;;;5.65;;
66721;SDS011;53633;49.932;10.884;2023-08-30T07:13:26;12.05;;;6.05;;
66721;SDS011;53633;49.932;10.884;2023-08-30T07:15:52;14.60;;;6.22;;
66721;SDS011;53633;49.932;10.884;2023-08-30T07:18:19;14.55;;;6.30;;
66721;SDS011;53633;49.932;10.884;2023-08-30T07:20:46;11.40;;;5.38;;
66721;SDS011;53633;49.932;10.884;2023-08-30T07:23:12;11.53;;;5.77;;
66721;SDS011;53633;49.932;10.884;2023-08-30T07:25:40;12.05;;;6.22;;
66721;SDS011;53633;49.932;10.884;2023-08-30T07:28:07;12.57;;;6.38;;
66721;SDS011;53633;49.932;10.884;2023-08-30T07:30:34;15.68;;;6.97;;
66721;SDS011;53633;49.932;10.884;2023-08-30T07:33:01;13.65;;;6.30;;
66721;SDS011;53633;49.932;10.884;2023-08-30T07:35:28;14.67;;;6.70;;
66721;SDS011;53633;49.932;10.884;2023-08-30T07:37:55;14.18;;;6.70;;
66721;SDS011;53633;49.932;10.884;2023-08-30T07:40:22;14.85;;;7.18;;
66721;SDS011;53633;49.932;10.884;2023-08-30T07:42:50;14.32;;;6.68;;
66721;SDS011;53633;49.932;10.884;2023-08-30T07:45:17;14.18;;;6.22;;
66721;SDS011;53633;49.932;10.884;2023-08-30T07:47:44;13.37;;;6.40;;
66721;SDS011;53633;49.932;10.884;2023-08-30T07:50:10;15.63;;;7.10;;
66721;SDS011;53633;49.932;10.884;2023-08-30T07:52:37;14.18;;;6.90;;
66721;SDS011;53633;49.932;10.884;2023-08-30T07:55:11;12.38;;;6.43;;
66721;SDS011;53633;49.932;10.884;2023-08-30T07:57:39;11.93;;;6.43;;
66721;SDS011;53633;49.932;10.884;2023-08-30T08:00:07;11.60;;;6.30;;
66721;SDS011;53633;49.932;10.884;2023-08-30T08:02:35;13.77;;;6.30;;
66721;SDS011;53633;49.932;10.884;2023-08-30T08:05:02;13.35;;;6.63;;
66721;SDS011;53633;49.932;10.884;2023-08-30T08:07:28;11.75;;;6.60;;
66721;SDS011;53633;49.932;10.884;2023-08-30T08:09:56;12.00;;;6.22;;
66721;SDS011;53633;49.932;10.884;2023-08-30T08:12:22;12.23;;;6.77;;
66721;SDS011;53633;49.932;10.884;2023-08-30T08:14:49;11.95;;;6.82;;
66721;SDS011;53633;49.932;10.884;2023-08-30T08:17:17;12.25;;;6.78;;
66721;SDS011;53633;49.932;10.884;2023-08-30T08:19:44;14.02;;;7.60;;
66721;SDS011;53633;49.932;10.884;2023-08-30T08:22:11;13.65;;;7.40;;
66721;SDS011;53633;49.932;10.884;2023-08-30T08:24:37;13.13;;;7.77;;
66721;SDS011;53633;49.932;10.884;2023-08-30T08:27:04;11.90;;;7.03;;
66721;SDS011;53633;49.932;10.884;2023-08-30T08:29:31;12.82;;;7.07;;
66721;SDS011;53633;49.932;10.884;2023-08-30T08:31:57;12.80;;;7.22;;
66721;SDS011;53633;49.932;10.884;2023-08-30T08:34:25;12.35;;;7.05;;
66721;SDS011;53633;49.932;10.884;2023-08-30T08:36:52;11.57;;;7.47;;
66721;SDS011;53633;49.932;10.884;2023-08-30T08:39:19;13.20;;;7.85;;
66721;SDS011;53633;49.932;10.884;2023-08-30T08:41:45;14.48;;;7.80;;
66721;SDS011;53633;49.932;10.884;2023-08-30T08:44:12;13.60;;;8.68;;
66721;SDS011;53633;49.932;10.884;2023-08-30T08:46:39;12.93;;;7.88;;
66721;SDS011;53633;49.932;10.884;2023-08-30T08:49:08;13.57;;;7.60;;
66721;SDS011;53633;49.932;10.884;2023-08-30T08:51:36;13.45;;;8.75;;
66721;SDS011;53633;49.932;10.884;2023-08-30T08:54:04;17.65;;;9.43;;
66721;SDS011;53633;49.932;10.884;2023-08-30T08:56:31;14.43;;;9.05;;
66721;SDS011;53633;49.932;10.884;2023-08-30T08:58:58;14.35;;;8.57;;
66721;SDS011;53633;49.932;10.884;2023-08-30T09:01:24;13.23;;;8.43;;
66721;SDS011;53633;49.932;10.884;2023-08-30T09:04:03;14.55;;;8.35;;
66721;SDS011;53633;49.932;10.884;2023-08-30T09:06:30;15.05;;;8.80;;
66721;SDS011;53633;49.932;10.884;2023-08-30T09:08:58;14.60;;;7.97;;
66721;SDS011;53633;49.932;10.884;2023-08-30T09:11:25;11.70;;;7.53;;
66721;SDS011;53633;49.932;10.884;2023-08-30T09:14:12;13.30;;;8.43;;
66721;SDS011;53633;49.932;10.884;2023-08-30T09:16:38;13.30;;;8.10;;
66721;SDS011;53633;49.932;10.884;2023-08-30T09:19:05;12.70;;;7.90;;
66721;SDS011;53633;49.932;10.884;2023-08-30T09:21:36;12.38;;;7.80;;
66721;SDS011;53633;49.932;10.884;2023-08-30T09:24:05;11.02;;;6.95;;
66721;SDS011;53633;49.932;10.884;2023-08-30T09:26:33;12.20;;;8.17;;
66721;SDS011;53633;49.932;10.884;2023-08-30T09:29:01;11.95;;;7.47;;
66721;SDS011;53633;49.932;10.884;2023-08-30T09:31:32;10.63;;;6.82;;
66721;SDS011;53633;49.932;10.884;2023-08-30T09:33:59;10.02;;;6.97;;
66721;SDS011;53633;49.932;10.884;2023-08-30T09:36:26;12.20;;;7.32;;
66721;SDS011;53633;49.932;10.884;2023-08-30T09:38:52;9.97;;;7.10;;
66721;SDS011;53633;49.932;10.884;2023-08-30T09:41:20;10.15;;;6.95;;
66721;SDS011;53633;49.932;10.884;2023-08-30T09:43:47;11.85;;;7.95;;
66721;SDS011;53633;49.932;10.884;2023-08-30T09:46:23;9.73;;;6.60;;
66721;SDS011;53633;49.932;10.884;2023-08-30T09:49:02;9.63;;;5.85;;
66721;SDS011;53633;49.932;10.884;2023-08-30T09:51:30;8.90;;;5.90;;
66721;SDS011;53633;49.932;10.884;2023-08-30T09:53:58;10.85;;;5.68;;
66721;SDS011;53633;49.932;10.884;2023-08-30T09:56:35;9.23;;;5.75;;
66721;SDS011;53633;49.932;10.884;2023-08-30T09:59:03;8.70;;;5.68;;
66721;SDS011;53633;49.932;10.884;2023-08-30T10:01:31;8.27;;;5.15;;
66721;SDS011;53633;49.932;10.884;2023-08-30T10:03:57;6.60;;;4.17;;
66721;SDS011;53633;49.932;10.884;2023-08-30T10:06:26;6.43;;;3.75;;
66721;SDS011;53633;49.932;10.884;2023-08-30T10:08:54;7.47;;;4.60;;
66721;SDS011;53633;49.932;10.884;2023-08-30T10:11:22;6.18;;;3.70;;
66721;SDS011;53633;49.932;10.884;2023-08-30T10:13:51;7.78;;;3.50;;
66721;SDS011;53633;49.932;10.884;2023-08-30T10:16:19;7.63;;;3.63;;
66721;SDS011;53633;49.932;10.884;2023-08-30T10:18:50;6.13;;;3.38;;
66721;SDS011;53633;49.932;10.884;2023-08-30T10:21:40;7.38;;;3.63;;
66721;SDS011;53633;49.932;10.884;2023-08-30T10:24:10;6.50;;;3.50;;
66721;SDS011;53633;49.932;10.884;2023-08-30T10:26:58;7.78;;;4.00;;
66721;SDS011;53633;49.932;10.884;2023-08-30T10:29:27;6.93;;;3.67;;
66721;SDS011;53633;49.932;10.884;2023-08-30T10:31:55;7.80;;;3.35;;
66721;SDS011;53633;49.932;10.884;2023-08-30T10:34:22;6.20;;;3.25;;
66721;SDS011;53633;49.932;10.884;2023-08-30T10:36:56;5.93;;;3.03;;
66721;SDS011;53633;49.932;10.884;2023-08-30T10:39:27;5.68;;;2.78;;
66721;SDS011;53633;49.932;10.884;2023-08-30T10:42:00;5.50;;;2.20;;
66721;SDS011;53633;49.932;10.884;2023-08-30T10:44:28;6.07;;;3.10;;
66721;SDS011;53633;49.932;10.884;2023-08-30T10:46:54;5.70;;;2.80;;
66721;SDS011;53633;49.932;10.884;2023-08-30T10:49:22;7.93;;;2.72;;
66721;SDS011;53633;49.932;10.884;2023-08-30T10:51:54;5.35;;;2.10;;
66721;SDS011;53633;49.932;10.884;2023-08-30T10:54:21;5.73;;;2.37;;
66721;SDS011;53633;49.932;10.884;2023-08-30T10:56:48;6.63;;;3.05;;
66721;SDS011;53633;49.932;10.884;2023-08-30T10:59:21;4.90;;;2.20;;
66721;SDS011;53633;49.932;10.884;2023-08-30T11:01:51;5.53;;;2.20;;
66721;SDS011;53633;49.932;10.884;2023-08-30T11:04:18;5.32;;;2.38;;
66721;SDS011;53633;49.932;10.884;2023-08-30T11:06:46;6.07;;;2.27;;
66721;SDS011;53633;49.932;10.884;2023-08-30T11:09:13;5.60;;;2.65;;
66721;SDS011;53633;49.932;10.884;2023-08-30T11:11:40;6.40;;;2.38;;
66721;SDS011;53633;49.932;10.884;2023-08-30T11:14:07;4.82;;;2.17;;
66721;SDS011;53633;49.932;10.884;2023-08-30T11:16:34;4.88;;;2.40;;
66721;SDS011;53633;49.932;10.884;2023-08-30T11:19:03;5.10;;;1.90;;
66721;SDS011;53633;49.932;10.884;2023-08-30T11:21:30;4.75;;;2.20;;
66721;SDS011;53633;49.932;10.884;2023-08-30T11:23:58;5.25;;;2.60;;
66721;SDS011;53633;49.932;10.884;2023-08-30T11:26:25;5.32;;;2.40;;
66721;SDS011;53633;49.932;10.884;2023-08-30T11:28:52;6.25;;;2.45;;
66721;SDS011;53633;49.932;10.884;2023-08-30T11:31:19;5.20;;;2.37;;
66721;SDS011;53633;49.932;10.884;2023-08-30T11:33:50;5.57;;;2.58;;
66721;SDS011;53633;49.932;10.884;2023-08-30T11:36:19;4.90;;;2.35;;
66721;SDS011;53633;49.932;10.884;2023-08-30T11:38:46;5.55;;;2.50;;
66721;SDS011;53633;49.932;10.884;2023-08-30T11:41:13;5.60;;;2.85;;
66721;SDS011;53633;49.932;10.884;2023-08-30T11:43:40;4.73;;;2.63;;
66721;SDS011;53633;49.932;10.884;2023-08-30T11:46:07;5.57;;;2.67;;
66721;SDS011;53633;49.932;10.884;2023-08-30T11:48:34;5.68;;;2.50;;
66721;SDS011;53633;49.932;10.884;2023-08-30T11:51:01;5.47;;;2.60;;
66721;SDS011;53633;49.932;10.884;2023-08-30T11:53:30;6.00;;;3.28;;
66721;SDS011;53633;49.932;10.884;2023-08-30T11:55:56;6.07;;;3.00;;
66721;SDS011;53633;49.932;10.884;2023-08-30T11:58:23;5.18;;;2.70;;
66721;SDS011;53633;49.932;10.884;2023-08-30T12:00:50;5.15;;;2.47;;
66721;SDS011;53633;49.932;10.884;2023-08-30T12:03:18;5.20;;;2.70;;
66721;SDS011;53633;49.932;10.884;2023-08-30T12:05:45;5.47;;;2.85;;
66721;SDS011;53633;49.932;10.884;2023-08-30T12:08:19;5.77;;;3.03;;
66721;SDS011;53633;49.932;10.884;2023-08-30T12:10:47;6.63;;;3.42;;
66721;SDS011;53633;49.932;10.884;2023-08-30T12:13:23;12.38;;;3.60;;
66721;SDS011;53633;49.932;10.884;2023-08-30T12:15:50;7.63;;;3.65;;
66721;SDS011;53633;49.932;10.884;2023-08-30T12:18:17;6.00;;;3.10;;
66721;SDS011;53633;49.932;10.884;2023-08-30T12:20:54;7.00;;;3.57;;
66721;SDS011;53633;49.932;10.884;2023-08-30T12:23:22;8.82;;;3.30;;
66721;SDS011;53633;49.932;10.884;2023-08-30T12:26:01;7.60;;;3.60;;
66721;SDS011;53633;49.932;10.884;2023-08-30T12:28:28;6.63;;;3.60;;
66721;SDS011;53633;49.932;10.884;2023-08-30T12:30:56;5.75;;;3.22;;
66721;SDS011;53633;49.932;10.884;2023-08-30T12:33:23;7.27;;;3.50;;
66721;SDS011;53633;49.932;10.884;2023-08-30T12:35:50;8.15;;;3.65;;
66721;SDS011;53633;49.932;10.884;2023-08-30T12:38:17;6.88;;;3.78;;
66721;SDS011;53633;49.932;10.884;2023-08-30T12:40:44;7.18;;;3.47;;
66721;SDS011;53633;49.932;10.884;2023-08-30T12:43:12;6.70;;;3.92;;
66721;SDS011;53633;49.932;10.884;2023-08-30T12:45:39;6.00;;;3.30;;
66721;SDS011;53633;49.932;10.884;2023-08-30T12:48:06;8.13;;;4.20;;
66721;SDS011;53633;49.932;10.884;2023-08-30T12:50:33;7.40;;;4.03;;
66721;SDS011;53633;49.932;10.884;2023-08-30T12:53:00;8.48;;;3.67;;
66721;SDS011;53633;49.932;10.884;2023-08-30T12:55:28;7.88;;;3.70;;
66721;SDS011;53633;49.932;10.884;2023-08-30T12:57:55;6.77;;;3.73;;
66721;SDS011;53633;49.932;10.884;2023-08-30T13:00:23;9.32;;;4.00;;
66721;SDS011;53633;49.932;10.884;2023-08-30T13:02:50;6.88;;;3.55;;
66721;SDS011;53633;49.932;10.884;2023-08-30T13:05:17;7.22;;;3.97;;
66721;SDS011;53633;49.932;10.884;2023-08-30T13:07:44;8.23;;;3.75;;
66721;SDS011;53633;49.932;10.884;2023-08-30T13:10:11;7.70;;;3.50;;
66721;SDS011;53633;49.932;10.884;2023-08-30T13:12:38;7.22;;;4.03;;
66721;SDS011;53633;49.932;10.884;2023-08-30T13:15:08;8.05;;;3.97;;
66721;SDS011;53633;49.932;10.884;2023-08-30T13:17:37;9.30;;;4.28;;
66721;SDS011;53633;49.932;10.884;2023-08-30T13:20:04;6.38;;;3.67;;
66721;SDS011;53633;49.932;10.884;2023-08-30T13:22:31;7.87;;;3.67;;
66721;SDS011;53633;49.932;10.884;2023-08-30T13:24:58;7.47;;;3.92;;
66721;SDS011;53633;49.932;10.884;2023-08-30T13:27:27;8.18;;;4.00;;
66721;SDS011;53633;49.932;10.884;2023-08-30T13:29:54;6.68;;;3.90;;
66721;SDS011;53633;49.932;10.884;2023-08-30T13:32:21;7.10;;;3.65;;
66721;SDS011;53633;49.932;10.884;2023-08-30T13:34:49;9.87;;;3.60;;
66721;SDS011;53633;49.932;10.884;2023-08-30T13:37:16;8.18;;;3.38;;
66721;SDS011;53633;49.932;10.884;2023-08-30T13:39:42;7.45;;;3.25;;
66721;SDS011;53633;49.932;10.884;2023-08-30T13:42:09;6.63;;;3.55;;
66721;SDS011;53633;49.932;10.884;2023-08-30T13:44:36;6.93;;;3.70;;
66721;SDS011;53633;49.932;10.884;2023-08-30T13:47:03;10.67;;;4.73;;
66721;SDS011;53633;49.932;10.884;2023-08-30T13:49:30;18.88;;;4.68;;
66721;SDS011;53633;49.932;10.884;2023-08-30T13:51:58;12.10;;;4.28;;
66721;SDS011;53633;49.932;10.884;2023-08-30T13:54:25;6.95;;;3.53;;
66721;SDS011;53633;49.932;10.884;2023-08-30T13:56:52;8.93;;;4.35;;
66721;SDS011;53633;49.932;10.884;2023-08-30T13:59:19;6.17;;;3.70;;
66721;SDS011;53633;49.932;10.884;2023-08-30T14:01:45;8.80;;;4.38;;
66721;SDS011;53633;49.932;10.884;2023-08-30T14:04:12;8.10;;;3.92;;
66721;SDS011;53633;49.932;10.884;2023-08-30T14:06:38;7.20;;;3.88;;
66721;SDS011;53633;49.932;10.884;2023-08-30T14:09:06;7.53;;;3.95;;
66721;SDS011;53633;49.932;10.884;2023-08-30T14:11:33;7.97;;;3.43;;
66721;SDS011;53633;49.932;10.884;2023-08-30T14:14:00;6.45;;;3.53;;
66721;SDS011;53633;49.932;10.884;2023-08-30T14:16:27;6.88;;;3.58;;
66721;SDS011;53633;49.932;10.884;2023-08-30T14:18:54;6.88;;;3.67;;
66721;SDS011;53633;49.932;10.884;2023-08-30T14:21:20;6.20;;;3.60;;
66721;SDS011;53633;49.932;10.884;2023-08-30T14:23:47;7.63;;;3.90;;
66721;SDS011;53633;49.932;10.884;2023-08-30T14:26:15;8.10;;;3.60;;
66721;SDS011;53633;49.932;10.884;2023-08-30T14:28:42;6.72;;;3.72;;
66721;SDS011;53633;49.932;10.884;2023-08-30T14:31:09;6.88;;;4.00;;
66721;SDS011;53633;49.932;10.884;2023-08-30T14:33:36;7.22;;;3.47;;